ENSB

Svalbard , Longyear Airport

Longyearbyen, Norway
METAR ENSB 242050Z 14002KT 9999 -RA SCT020 BKN030 02/01 Q0977 RMK WIND 1400FT 20003KT
Observed Flight Rules
Sep-24 @ 20:50 UTC (33 minutes ago) Marginal Visual Flight Rules
Wind Visibility Clouds Conditions
140° at 2 knots 10,000+ meters
  • Scattered at 2,000' AGL
  • Broken at 3,000' AGL
  • Light Rain
Temperatures Readings
Current 2°C / 36°F
Dewpoint 1°C / 34°F
Humidity 93%
Altimeter 28.85" Hg
Pressure 977 hPa
Elevation 29
METAR ENSB 242050Z 14002KT 9999 -RA SCT020 BKN030 02/01 Q0977 RMK WIND 1400FT 20003KT
Observed Flight Rules
Sep-24 @ 20:50 UTC
(33 minutes ago)
MVFR
Wind Visibility
140° at 2 knots 10,000+ meters
Clouds
  • Scattered at 2,000' AGL
  • Broken at 3,000' AGL
Conditions
  • Light Rain
Temperature Dewpoint
2°C / 36°F 1°C / 34°F
Humidity Altimeter Pressure
93% 28.85" Hg 977 hPa